Acushnet, MA

11:39 AM EST on January 25, 2015 (GMT -0500)
Plymouth Municipal | Change Station
CLOSE
Current Station
Airport
Location: Plymouth,
Elevation: 148 ft
Nearby Weather Stations
Active Advisory: Blizzard Watch Active Notice: Public Information Statement

Elev 148 ft 41.91 °N, 70.73 °W | Updated 47 minutes ago

Clear
Clear
36 °F
Feels Like 26 °F
N
16
Wind Variable Wind from WSW
Gusts 34 mph

Today
High -- | Low -- °F
--% Chance of Precip.
Yesterday
High -- | Low -- °F
Precip. -- in
7:02 AM 4:50 PM
Waxing Crescent, 33% visible
Pressure 29.61 in
Visibility 10.0 miles
Clouds Clear
Windchill 26 °F
Dew Point 27 °F
Humidity 70%
Rainfall 0.00 in
Snow Depth Not available.
UV 3 out of 12
Pollen .10 out of 12
Air Quality Not available.
Flu Activity Not available.
METAR KPYM 251552Z AUTO 25014G30KT 10SM CLR 02/M03 A2961 RMK AO2 PK WND 27030/1546 SLP027 T00221028

More Conditions Fewer Conditions

Pressure 29.61 in
Visibility 10.0 miles
Clouds Clear
Windchill 26 °F
Dew Point 27 °F
Humidity 70%
Rainfall 0.00 in
Snow Depth Not available.
UV 3 out of 12
Pollen .10 out of 12
Air Quality Not available.
Flu Activity Not available.
METAR KPYM 251552Z AUTO 25014G30KT 10SM CLR 02/M03 A2961 RMK AO2 PK WND 27030/1546 SLP027 T00221028

More Conditions Fewer Conditions

10-Day Weather Forecast

Almanac

Astronomy

Jan. 25, 2015 Rise Set
Actual Time
Civil Twilight
Nautical Twilight
Astronomical Twilight
Moon
Length of Visible Light
Length of Day
Tomorrow will be .
, % of the Moon is Illuminated

Today's Extremes

State Highs State Lows

Community

WunderPhotos

Upload Photos

1,789,957 photos uploaded!

WunderBlogs® & News

Nearby

Air Quality

  Air Quality AQ Index Pollutant
Not available.

Snow Depth

Station Depth Elevation

Earthquake Activity

City Distance Mag. Time & Date
Minimum magnitude displayed is 2.5.

Coastal Water Temperatures

Place Temperature

Nearby Weather Stations